Time;durP1;ratioP1;P1;durP2;ratioP2;P2;SDS_P1;SDS_P2;PMS_P1;PMS_P2;Temp;Humidity;BMP_temperature;BMP_pressure;BME280_temperature;BME280_humidity;BME280_pressure;Samples;Min_cycle;Max_cycle;Signal;HPM_P1;HPM_P2
2021/12/04 10:23:55;;;;;;;11.18;7.50;;;15.80;90.00;;;;;;5047709;28;20107;-60
2021/12/04 10:32:55;;;;;;;14.52;9.73;;;10.30;98.30;;;;;;5042669;28;20048;-60
2021/12/04 10:34:49;;;;;;;14.23;9.05;;;9.20;99.90;;;;;;5026290;28;20053;-62
2021/12/04 10:37:22;;;;;;;15.65;10.05;;;8.20;99.90;;;;;;5032624;28;20083;-60
2021/12/04 10:39:48;;;;;;;16.40;9.88;;;7.60;99.90;;;;;;5028030;28;20054;-61
2021/12/04 10:42:18;;;;;;;;;;;7.10;99.90;;;;;;5026578;28;20052;-60
2021/12/04 10:44:51;;;;;;;20.75;10.70;;;6.80;99.90;;;;;;5034698;28;19921;-61
2021/12/04 10:47:27;;;;;;;19.45;11.38;;;6.50;99.90;;;;;;5039032;28;20041;-61
2021/12/04 10:53:05;;;;;;;24.88;12.13;;;6.00;99.90;;;;;;5037411;28;20113;-61
2021/12/04 11:00:53;;;;;;;24.73;13.18;;;5.60;99.90;;;;;;5035716;28;20065;-59
2021/12/04 11:25:35;;;;;;;28.52;13.98;;;5.20;99.90;;;;;;5056180;27;20066;-60
2021/12/04 11:39:07;;;;;;;27.92;13.50;;;5.20;99.90;;;;;;5023508;28;20131;-62
2021/12/04 11:44:28;;;;;;;26.02;14.00;;;5.20;99.90;;;;;;5021714;28;20570;-62
2021/12/04 11:46:59;;;;;;;25.25;13.50;;;5.20;99.90;;;;;;5013384;28;20078;-61
2021/12/04 11:49:32;;;;;;;23.60;13.15;;;5.20;99.90;;;;;;5013355;28;20091;-61
2021/12/04 11:52:07;;;;;;;24.77;13.60;;;5.20;99.90;;;;;;5012512;28;20054;-62
2021/12/04 11:54:47;;;;;;;23.85;13.13;;;5.20;99.90;;;;;;5013138;28;20058;-60
2021/12/04 11:57:15;;;;;;;24.17;13.15;;;5.20;99.90;;;;;;5013103;28;20074;-61
2021/12/04 11:59:43;;;;;;;23.08;12.85;;;5.20;99.90;;;;;;5012954;28;20050;-61
2021/12/04 12:02:16;;;;;;;20.90;12.65;;;5.20;99.90;;;;;;5012999;28;20102;-60
2021/12/04 12:04:47;;;;;;;22.20;12.38;;;5.20;99.90;;;;;;5013486;28;20063;-62
2021/12/04 12:07:25;;;;;;;27.83;13.18;;;5.20;99.90;;;;;;5012962;28;20045;-61
2021/12/04 12:10:10;;;;;;;26.17;13.25;;;5.20;99.90;;;;;;5013226;28;20154;-61
2021/12/04 12:12:39;;;;;;;22.38;12.48;;;5.20;99.90;;;;;;5019912;28;20053;-60
2021/12/04 12:15:21;;;;;;;23.58;12.45;;;5.30;99.90;;;;;;5011740;28;20050;-61
2021/12/04 12:17:46;;;;;;;27.13;13.38;;;5.30;99.90;;;;;;5012613;28;20389;-61
2021/12/04 12:20:25;;;;;;;29.17;13.98;;;5.30;99.90;;;;;;5023946;28;20053;-61
2021/12/04 12:23:06;;;;;;;26.63;13.32;;;5.30;99.90;;;;;;5033102;28;20057;-61
2021/12/04 12:36:21;;;;;;;32.83;15.40;;;5.30;99.90;;;;;;5012253;28;20054;-61
2021/12/04 12:38:54;;;;;;;33.13;15.32;;;5.30;99.90;;;;;;5012468;28;20054;-62
2021/12/04 12:41:34;;;;;;;33.10;16.52;;;5.30;99.90;;;;;;5013127;28;20144;-63
2021/12/04 12:44:00;;;;;;;37.50;16.38;;;5.30;99.90;;;;;;5012553;28;20050;-62
2021/12/04 12:46:55;;;;;;;30.67;15.48;;;5.40;99.90;;;;;;5010659;28;20371;-61
2021/12/04 12:49:34;;;;;;;30.38;16.08;;;5.40;99.90;;;;;;5013290;28;20062;-61
2021/12/04 12:52:06;;;;;;;34.13;16.85;;;5.30;99.90;;;;;;5012759;28;20139;-61
2021/12/04 12:54:34;;;;;;;30.52;16.23;;;5.30;99.90;;;;;;5012845;28;20057;-60
2021/12/04 12:57:09;;;;;;;30.48;16.15;;;5.40;99.90;;;;;;5012211;28;20058;-62
2021/12/04 12:59:46;;;;;;;32.47;16.35;;;5.30;99.90;;;;;;5011462;28;20042;-61
2021/12/04 13:13:28;;;;;;;27.85;14.75;;;5.40;99.90;;;;;;5031606;28;20186;-60
2021/12/04 13:16:00;;;;;;;27.33;15.48;;;5.30;99.90;;;;;;5031291;28;20132;-61
2021/12/04 13:18:27;;;;;;;27.65;15.15;;;5.30;99.90;;;;;;5042326;27;20366;-60
2021/12/04 13:21:00;;;;;;;29.25;15.25;;;5.30;99.90;;;;;;5045682;27;20064;-60
2021/12/04 13:23:26;;;;;;;24.73;14.77;;;5.40;99.90;;;;;;5031751;27;20046;-61
2021/12/04 13:26:05;;;;;;;25.27;13.73;;;5.40;99.90;;;;;;5030261;28;20052;-63
2021/12/04 13:28:33;;;;;;;23.73;14.13;;;5.40;99.90;;;;;;5031750;28;20060;-63
2021/12/04 13:31:00;;;;;;;26.77;14.38;;;5.40;99.90;;;;;;5031933;28;20449;-62
2021/12/04 13:33:28;;;;;;;24.67;12.90;;;5.50;99.90;;;;;;5030658;28;20092;-62
2021/12/04 13:35:54;;;;;;;27.25;14.60;;;5.40;99.90;;;;;;5031305;28;20053;-62
2021/12/04 13:38:22;;;;;;;21.20;12.55;;;5.40;99.90;;;;;;5031313;28;20057;-63
2021/12/04 13:40:49;;;;;;;24.65;14.55;;;5.50;99.90;;;;;;5030178;28;20060;-61
2021/12/04 13:43:16;;;;;;;26.27;13.88;;;5.40;99.90;;;;;;5030001;28;20500;-63
2021/12/04 13:45:43;;;;;;;21.33;13.48;;;5.40;99.90;;;;;;5030720;28;20057;-62
2021/12/04 13:48:09;;;;;;;24.92;13.40;;;5.40;99.90;;;;;;5031761;28;20108;-62
2021/12/04 13:53:07;;;;;;;25.02;13.88;;;5.40;99.90;;;;;;5119794;27;20051;-61
2021/12/04 13:55:38;;;;;;;24.30;13.65;;;5.40;99.90;;;;;;5134028;27;20091;-63
2021/12/04 13:58:05;;;;;;;29.38;14.30;;;5.40;99.90;;;;;;5134208;27;20043;-63
2021/12/04 14:00:31;;;;;;;28.95;15.10;;;5.40;99.90;;;;;;5134881;27;20122;-62
2021/12/04 14:02:56;;;;;;;28.45;14.85;;;5.40;99.90;;;;;;5133838;27;20076;-62
2021/12/04 14:05:24;;;;;;;26.90;14.23;;;5.40;99.90;;;;;;5134761;27;20422;-63
2021/12/04 14:07:56;;;;;;;30.88;15.70;;;5.40;99.90;;;;;;5134749;27;20051;-62
2021/12/04 14:10:34;;;;;;;30.05;14.82;;;5.40;99.90;;;;;;5134047;27;20053;-62
2021/12/04 14:13:02;;;;;;;32.22;15.43;;;5.40;99.90;;;;;;5134622;27;20055;-65
2021/12/04 14:15:28;;;;;;;28.23;14.30;;;5.40;99.90;;;;;;5134657;27;20043;-60
2021/12/04 14:18:06;;;;;;;33.05;16.02;;;5.40;99.90;;;;;;5133722;27;20051;-60
2021/12/04 14:20:35;;;;;;;30.73;15.52;;;5.40;99.90;;;;;;5061295;27;20120;-60
2021/12/04 14:23:01;;;;;;;27.80;14.05;;;5.40;99.90;;;;;;5029005;28;20057;-61
2021/12/04 14:25:28;;;;;;;33.38;15.95;;;5.30;99.90;;;;;;5029623;28;20427;-60
2021/12/04 14:27:56;;;;;;;27.38;14.32;;;5.30;99.90;;;;;;5030656;28;20064;-60
2021/12/04 14:30:32;;;;;;;26.33;15.05;;;5.30;99.90;;;;;;5030541;28;20045;-61
2021/12/04 14:32:59;;;;;;;36.22;16.42;;;5.30;99.90;;;;;;5030632;28;20060;-60
2021/12/04 14:35:30;;;;;;;29.50;14.90;;;5.30;99.90;;;;;;5030356;28;20088;-61
2021/12/04 14:37:58;;;;;;;33.08;16.67;;;5.40;99.90;;;;;;5027593;28;20154;-61
2021/12/04 14:40:48;;;;;;;31.73;15.65;;;5.30;99.90;;;;;;5028154;27;20110;-60
2021/12/04 14:43:18;;;;;;;30.60;15.38;;;5.40;99.90;;;;;;5028535;28;20497;-62
2021/12/04 14:45:47;;;;;;;31.38;15.52;;;5.30;99.90;;;;;;5030404;28;20057;-60
2021/12/04 14:48:41;;;;;;;35.38;16.40;;;5.30;99.90;;;;;;5030398;28;20098;-61
2021/12/04 14:51:14;;;;;;;32.75;15.95;;;5.30;99.90;;;;;;5031966;28;20058;-64
2021/12/04 14:53:50;;;;;;;37.45;16.17;;;5.30;99.90;;;;;;5029933;28;20385;-62
2021/12/04 14:56:19;;;;;;;35.67;15.15;;;5.30;99.90;;;;;;5029249;28;20049;-61
2021/12/04 14:58:45;;;;;;;35.00;16.13;;;5.30;99.90;;;;;;5029976;28;20489;-60
2021/12/04 15:01:12;;;;;;;;;;;5.30;99.90;;;;;;5030681;28;20054;-61
2021/12/04 15:03:46;;;;;;;30.65;15.43;;;5.30;99.90;;;;;;5022429;28;19920;-60
2021/12/04 15:06:16;;;;;;;32.75;14.80;;;5.30;99.90;;;;;;5024336;28;20047;-61
2021/12/04 15:08:49;;;;;;;31.45;16.00;;;5.30;99.90;;;;;;5030693;28;20500;-61
2021/12/04 15:11:19;;;;;;;35.78;15.73;;;5.20;99.90;;;;;;5033713;28;20129;-60
2021/12/04 15:13:56;;;;;;;36.47;15.82;;;5.30;99.90;;;;;;5033588;28;20089;-60
2021/12/04 15:16:47;;;;;;;32.05;15.77;;;5.20;99.90;;;;;;5033517;28;20132;-60
2021/12/04 15:19:25;;;;;;;32.35;15.57;;;5.30;99.90;;;;;;5033089;28;20454;-60
2021/12/04 15:21:59;;;;;;;35.80;15.88;;;5.20;99.90;;;;;;5020959;28;20050;-62
2021/12/04 15:24:38;;;;;;;34.22;16.08;;;5.20;99.90;;;;;;5022021;28;20056;-60
2021/12/04 15:27:15;;;;;;;30.23;15.70;;;5.20;99.90;;;;;;5020975;28;20559;-61
2021/12/04 15:29:44;;;;;;;27.00;15.10;;;5.20;99.90;;;;;;5022521;28;20067;-60
2021/12/04 15:32:12;;;;;;;35.25;16.38;;;5.20;99.90;;;;;;5020856;28;20063;-61
2021/12/04 15:34:45;;;;;;;33.97;15.38;;;5.20;99.90;;;;;;5022610;28;20057;-61
2021/12/04 15:37:12;;;;;;;30.30;15.02;;;5.20;99.90;;;;;;5021166;28;20147;-62
2021/12/04 15:39:43;;;;;;;27.58;14.23;;;5.20;99.90;;;;;;5022614;28;20061;-62
2021/12/04 15:42:34;;;;;;;29.10;15.30;;;5.20;99.90;;;;;;5021833;28;20048;-60
2021/12/04 15:45:15;;;;;;;27.15;14.95;;;5.20;99.90;;;;;;5018352;28;20108;-60
2021/12/04 15:47:49;;;;;;;29.40;15.00;;;5.20;99.90;;;;;;5013100;28;20509;-61
2021/12/04 15:50:39;;;;;;;32.40;14.75;;;5.20;99.90;;;;;;5013820;28;20049;-60
2021/12/04 15:53:13;;;;;;;29.20;14.70;;;5.30;99.90;;;;;;5012882;28;20482;-61
2021/12/04 15:55:42;;;;;;;33.20;16.63;;;5.20;99.90;;;;;;5013158;28;20085;-61
2021/12/04 15:58:12;;;;;;;32.75;15.80;;;5.20;99.90;;;;;;5012161;28;20568;-60
2021/12/04 16:00:45;;;;;;;29.65;14.85;;;5.20;99.90;;;;;;5013153;28;20050;-60
2021/12/04 16:03:14;;;;;;;26.98;15.23;;;5.20;99.90;;;;;;5013522;28;20054;-61
2021/12/04 16:05:46;;;;;;;28.48;15.40;;;5.20;99.90;;;;;;5023163;28;20409;-63
2021/12/04 16:08:18;;;;;;;30.13;15.30;;;5.20;99.90;;;;;;5032734;28;20105;-61
2021/12/04 16:10:47;;;;;;;27.95;16.05;;;5.20;99.90;;;;;;5031700;28;20088;-62
2021/12/04 16:13:27;;;;;;;33.75;16.00;;;5.20;99.90;;;;;;5032990;28;20057;-62
2021/12/04 16:15:54;;;;;;;26.08;15.00;;;5.20;99.90;;;;;;5033018;28;20090;-61
2021/12/04 16:18:23;;;;;;;30.08;15.05;;;5.30;99.90;;;;;;5031545;28;20049;-62
2021/12/04 16:20:49;;;;;;;26.83;14.98;;;5.20;99.90;;;;;;5032462;28;20056;-63
2021/12/04 16:23:16;;;;;;;27.58;16.27;;;5.20;99.90;;;;;;5032239;28;20061;-61
2021/12/04 16:25:43;;;;;;;25.08;14.88;;;5.30;99.90;;;;;;5031429;28;20046;-60
2021/12/04 16:38:47;;;;;;;24.65;13.65;;;5.30;99.90;;;;;;5032317;28;20496;-61
2021/12/04 16:41:14;;;;;;;29.67;15.07;;;5.30;99.90;;;;;;5031559;28;20088;-61
2021/12/04 16:43:45;;;;;;;28.30;14.50;;;5.30;99.90;;;;;;5031700;28;20138;-61
2021/12/04 16:46:14;;;;;;;24.83;15.23;;;5.30;99.90;;;;;;5032122;28;20053;-62
2021/12/04 16:48:46;;;;;;;28.83;15.82;;;5.30;99.90;;;;;;5030000;28;20461;-61
2021/12/04 16:59:02;;;;;;;31.10;15.43;;;5.30;99.90;;;;;;5021271;28;20057;-62
2021/12/04 17:01:29;;;;;;;29.27;15.25;;;5.30;99.90;;;;;;5021312;28;20054;-61
2021/12/04 17:03:55;;;;;;;28.60;15.23;;;5.30;99.90;;;;;;5031783;28;20087;-62
2021/12/04 17:06:21;;;;;;;26.30;14.90;;;5.30;99.90;;;;;;5031754;28;20096;-62
2021/12/04 17:08:48;;;;;;;28.50;15.55;;;5.30;99.90;;;;;;5031799;28;20078;-61
2021/12/04 17:11:14;;;;;;;30.70;16.90;;;5.30;99.90;;;;;;5021870;28;20073;-61
2021/12/04 17:13:40;;;;;;;25.98;14.93;;;5.30;99.90;;;;;;5021165;28;20408;-62
2021/12/04 17:16:06;;;;;;;35.72;17.77;;;5.30;99.90;;;;;;5029308;28;20068;-63
2021/12/04 17:18:36;;;;;;;28.05;16.05;;;5.20;99.90;;;;;;5020875;28;20046;-63
2021/12/04 17:21:02;;;;;;;33.97;15.82;;;5.20;99.90;;;;;;5005429;28;20081;-64
2021/12/04 17:23:28;;;;;;;32.13;17.95;;;5.20;99.90;;;;;;5030992;28;20145;-63
2021/12/04 17:25:57;;;;;;;30.02;16.83;;;5.20;99.90;;;;;;5031402;28;20061;-64
2021/12/04 17:28:25;;;;;;;27.02;15.88;;;5.20;99.90;;;;;;5030515;28;20454;-63
2021/12/04 17:30:50;;;;;;;24.33;14.68;;;5.20;99.90;;;;;;5030095;28;20053;-64
2021/12/04 17:33:16;;;;;;;25.83;15.38;;;5.30;99.90;;;;;;5029998;28;20098;-63
2021/12/04 17:35:42;;;;;;;27.42;15.65;;;5.30;99.90;;;;;;5030296;28;20496;-64
2021/12/04 17:38:08;;;;;;;31.52;16.80;;;5.30;99.90;;;;;;5030320;28;20092;-65
2021/12/04 17:40:35;;;;;;;28.58;16.35;;;5.20;99.90;;;;;;5013952;28;20056;-64
2021/12/04 17:43:02;;;;;;;27.25;15.75;;;5.20;99.90;;;;;;5031152;28;20059;-64
2021/12/04 17:45:28;;;;;;;23.25;14.05;;;5.20;99.90;;;;;;5031122;28;20050;-63
2021/12/04 17:47:55;;;;;;;30.65;14.27;;;5.10;99.90;;;;;;5023347;28;20049;-64
2021/12/04 17:50:25;;;;;;;26.65;13.73;;;5.10;99.90;;;;;;5021865;28;20132;-64
2021/12/04 17:52:51;;;;;;;30.40;14.68;;;5.10;99.90;;;;;;5020549;28;20125;-63
2021/12/04 17:55:17;;;;;;;26.88;14.43;;;5.20;99.90;;;;;;5028081;28;20497;-63
2021/12/04 17:57:43;;;;;;;24.70;13.18;;;5.20;99.90;;;;;;5030079;28;20504;-63
2021/12/04 18:00:14;;;;;;;30.55;15.18;;;5.20;99.90;;;;;;5030804;28;20049;-62
2021/12/04 18:02:40;;;;;;;19.33;11.02;;;5.20;99.90;;;;;;5031580;28;20488;-65
2021/12/04 18:05:09;;;;;;;16.63;10.35;;;5.20;99.90;;;;;;5029943;28;20057;-63
2021/12/04 18:07:35;;;;;;;19.42;10.25;;;5.20;99.90;;;;;;5027849;28;20050;-64
2021/12/04 18:10:05;;;;;;;17.65;9.80;;;5.10;99.90;;;;;;5021060;28;20045;-62
2021/12/04 18:12:38;;;;;;;24.55;12.80;;;5.10;99.90;;;;;;5011198;28;20038;-62
2021/12/04 18:15:08;;;;;;;24.83;11.63;;;5.10;99.90;;;;;;5020948;28;20077;-62
2021/12/04 18:17:34;;;;;;;22.55;11.63;;;5.10;99.90;;;;;;5024839;28;20044;-63
2021/12/04 18:20:00;;;;;;;21.42;10.75;;;5.10;99.90;;;;;;5019907;28;20046;-63
2021/12/04 18:22:26;;;;;;;24.83;11.20;;;5.10;99.90;;;;;;5013436;28;20140;-63
2021/12/04 18:24:52;;;;;;;23.50;11.65;;;5.10;99.90;;;;;;5010686;28;20050;-63
2021/12/04 18:27:17;;;;;;;29.02;16.88;;;5.10;99.90;;;;;;5010130;28;20422;-62
2021/12/04 18:29:43;;;;;;;35.15;19.85;;;5.00;99.90;;;;;;5009954;28;20486;-62
2021/12/04 18:32:09;;;;;;;31.25;18.38;;;5.10;99.90;;;;;;5010941;28;20175;-62
2021/12/04 18:34:36;;;;;;;32.80;16.55;;;5.00;99.90;;;;;;5017053;28;20042;-63
2021/12/04 18:37:02;;;;;;;30.90;15.63;;;5.00;99.90;;;;;;5030488;28;20046;-62
2021/12/04 18:39:28;;;;;;;30.65;15.02;;;5.00;99.90;;;;;;5031130;28;20056;-62
2021/12/04 18:41:56;;;;;;;33.40;15.10;;;5.00;99.90;;;;;;5024405;28;20107;-62
2021/12/04 18:44:23;;;;;;;30.00;14.70;;;5.00;99.90;;;;;;5021147;28;20052;-63
2021/12/04 18:46:49;;;;;;;32.10;15.55;;;5.00;99.90;;;;;;5023068;28;20457;-62
2021/12/04 18:49:15;;;;;;;37.25;18.10;;;4.90;99.90;;;;;;5023758;28;20117;-63
2021/12/04 18:51:43;;;;;;;40.30;18.75;;;5.00;99.90;;;;;;5021762;28;20046;-63
2021/12/04 18:54:09;;;;;;;45.45;19.73;;;4.90;99.90;;;;;;5022909;28;20049;-61
2021/12/04 18:56:35;;;;;;;46.75;19.10;;;4.90;99.90;;;;;;5022371;28;20057;-62
2021/12/04 18:59:01;;;;;;;41.58;18.55;;;4.90;99.90;;;;;;5023337;28;20050;-64
2021/12/04 19:01:27;;;;;;;40.08;16.65;;;4.90;99.90;;;;;;5022386;28;20053;-62
2021/12/04 19:03:53;;;;;;;;;;;4.80;99.90;;;;;;5024012;28;20094;-63
2021/12/04 19:06:19;;;;;;;35.97;15.45;;;4.90;99.90;;;;;;5021091;28;20339;-64
2021/12/04 19:08:47;;;;;;;34.40;15.43;;;4.90;99.90;;;;;;5023081;28;20128;-63
2021/12/04 19:11:14;;;;;;;38.13;16.95;;;4.90;99.90;;;;;;5020957;28;20054;-64
2021/12/04 19:13:40;;;;;;;36.08;17.35;;;4.90;99.90;;;;;;5020456;28;20050;-65
2021/12/04 19:16:06;;;;;;;41.63;17.65;;;4.90;99.90;;;;;;5013699;28;20053;-63
2021/12/04 19:18:32;;;;;;;38.22;15.15;;;4.90;99.90;;;;;;5020730;28;20085;-62
2021/12/04 19:20:59;;;;;;;32.55;15.43;;;4.90;99.90;;;;;;5033523;28;20041;-62
2021/12/04 19:23:26;;;;;;;38.38;14.35;;;4.90;99.90;;;;;;5032929;28;20054;-62
2021/12/04 19:25:53;;;;;;;35.33;13.85;;;4.90;99.90;;;;;;5032882;28;20060;-62
2021/12/04 19:28:19;;;;;;;35.28;14.75;;;4.90;99.90;;;;;;5032303;28;20053;-63
2021/12/04 19:30:48;;;;;;;;;;;4.90;99.90;;;;;;5033805;28;20049;-63
2021/12/04 19:52:05;;;;;;;32.80;12.52;;;4.90;99.90;;;;;;5015873;28;20459;-63
2021/12/04 19:57:10;;;;;;;31.85;14.57;;;4.90;99.90;;;;;;5012518;28;20058;-64
2021/12/04 19:59:37;;;;;;;30.88;14.43;;;4.90;99.90;;;;;;5013158;28;20054;-64
2021/12/04 20:15:58;;;;;;;37.92;12.55;;;4.90;99.90;;;;;;5033307;28;20049;-62
2021/12/04 20:18:24;;;;;;;26.10;11.65;;;4.90;99.90;;;;;;5032690;28;20119;-62
2021/12/04 20:20:51;;;;;;;;;;;4.90;99.90;;;;;;5032953;28;20210;-63
2021/12/04 20:23:22;;;;;;;33.08;14.68;;;4.90;99.90;;;;;;5032163;28;19927;-63
2021/12/04 20:25:54;;;;;;;42.95;14.07;;;4.90;99.90;;;;;;5031653;28;20050;-63
2021/12/04 20:28:25;;;;;;;32.95;12.48;;;5.00;99.90;;;;;;5032009;28;20049;-62
2021/12/04 20:37:08;;;;;;;45.42;13.45;;;5.00;99.90;;;;;;5031989;28;20110;-63
2021/12/04 21:11:14;;;;;;;38.78;14.15;;;4.90;99.90;;;;;;5011645;28;20054;-64
2021/12/04 21:51:45;;;;;;;18.48;7.15;;;4.30;99.90;;;;;;5012285;28;20054;-63
2021/12/04 21:54:11;;;;;;;17.38;8.10;;;4.30;99.90;;;;;;4994636;28;20062;-63
2021/12/04 22:10:09;;;;;;;15.93;6.40;;;4.20;99.90;;;;;;5031388;28;20547;-63
2021/12/04 22:12:50;;;;;;;18.95;7.38;;;4.20;99.90;;;;;;5013718;28;20081;-63
2021/12/04 22:24:19;;;;;;;25.55;10.15;;;4.10;99.90;;;;;;4952422;28;20055;-63
